Fantasy — H3GS — position and weather

sailwx.info

Track history (hours):
 
Tides and Currents Weather Stations Pressure Air Temp Water Temp Dewpoint Dewpoint Depression Visibility Wind Speed Wind Dir Waves Ship Positions

Fantasy

Operator: Carnival Cruise Lines

Last reported at 2016-Jul-26 06:00 UTC. Time now 2016-Jul-27 01:12 UTC.
Position N 24°24' W 080°54'.

Type: Ship. MMSI: 353486000.

Wind from 120 at 16 knots

Barometer 1017.0 mb
Air temperature 28.0 ° C
Dewpoint 26.6 ° C
Water temperature 30.0 ° C

Date/timePositionNaut miles runAvg speedWind from/ knotsBaromVisibWave heightAir tempDewpointWater temp
2016-Jul-26 06:00N 24°24' W 080°54'9212.4 120 / 161017.0 28.026.630.0
2016-Jul-25 22:34N 25°40' W 079°57'1111.2
2016-Jul-25 21:33N 25°46' W 080°08'2 1.9
2016-Jul-25 20:23N 25°47' W 080°10'0 0.0
2016-Jul-25 19:31N 25°47' W 080°10'0 0.0
2016-Jul-25 18:25N 25°47' W 080°10'0 0.0
2016-Jul-25 17:33N 25°47' W 080°10'0 0.0
2016-Jul-25 16:27N 25°47' W 080°10'0 0.0
2016-Jul-25 15:32N 25°47' W 080°10'0 0.0
2016-Jul-25 14:29N 25°47' W 080°10'0 0.0
2016-Jul-25 13:20N 25°47' W 080°10'0 0.0
2016-Jul-25 12:33N 25°47' W 080°10'26 4.8
2016-Jul-25 07:00N 25°54' W 079°42'   110 / 81017.0 28.025.230.0
2016-Jul-23 02:04N 26°16' W 079°08'813.0
2016-Jul-23 01:26N 26°12' W 079°16'1314.4
2016-Jul-23 00:33N 26°05' W 079°28'1514.7
2016-Jul-22 23:34N 25°59' W 079°42'1413.9
2016-Jul-22 22:33N 25°53' W 079°56'1312.8
2016-Jul-22 21:33N 25°46' W 080°09'2 1.4
2016-Jul-22 20:25N 25°47' W 080°10'0 0.0
2016-Jul-22 19:31N 25°47' W 080°10'0 0.0
2016-Jul-22 18:17N 25°47' W 080°10'0 0.0
2016-Jul-22 17:18N 25°47' W 080°10'0 0.0
2016-Jul-22 16:14N 25°47' W 080°10'0 0.0
2016-Jul-22 15:23N 25°47' W 080°10'0 0.0
2016-Jul-22 14:32N 25°47' W 080°10'0 0.0
2016-Jul-22 13:25N 25°47' W 080°10'0 0.0
2016-Jul-22 12:31N 25°47' W 080°10'0 0.4
2016-Jul-22 11:29N 25°47' W 080°10'8 9.1
2016-Jul-22 10:33N 25°48' W 080°01'1111.5
2016-Jul-22 09:33N 25°53' W 079°49'1212.2
2016-Jul-22 08:34N 26°01' W 079°39'1312.5
2016-Jul-22 07:30N 26°09' W 079°27'2516.3
2016-Jul-22 06:00N 26°12' W 079°00'126 5.3 080 / 71018.0 0.527.025.630.0
2016-Jul-21 06:00N 25°48' W 076°42'25 0.7 090 / 111019.0 27.025.630.0
2016-Jul-19 18:00N 25°36' W 077°06'81 6.8 080 / 171020.010.8 1.029.026.230.0
2016-Jul-19 06:00N 26°06' W 078°30'44 9.9 110 / 181021.010.8 1.028.023.730.0
2016-Jul-19 01:32N 26°11' W 079°19'1111.0
2016-Jul-19 00:33N 26°05' W 079°29'1111.2
2016-Jul-18 23:33N 25°59' W 079°39'1111.3
2016-Jul-18 22:33N 25°54' W 079°50'1111.0
2016-Jul-18 21:32N 25°48' W 080°01'9 0.8
2016-Jul-18 10:08N 25°47' W 080°10'2 3.5
2016-Jul-18 09:27N 25°46' W 080°08'9 9.9
2016-Jul-18 08:33N 25°49' W 079°59'9 9.2
2016-Jul-18 07:33N 25°54' W 079°50'7 6.7
2016-Jul-18 06:33N 25°57' W 079°44'7 7.4
2016-Jul-18 05:33N 26°01' W 079°37'  
Track history (hours):
 
Tides and Currents Weather Stations Pressure Air Temp Water Temp Dewpoint Dewpoint Depression Visibility Wind Speed Wind Dir Waves Ship Positions

Fantasy

Operator: Carnival Cruise Lines

Last reported at 2016-Jul-26 06:00 UTC. Time now 2016-Jul-27 01:12 UTC.
Position N 24°24' W 080°54'.

Type: Ship. MMSI: 353486000.

Wind from 120 at 16 knots

Barometer 1017.0 mb
Air temperature 28.0 ° C
Dewpoint 26.6 ° C
Water temperature 30.0 ° C

Date/timePositionNaut miles runAvg speedWind from/ knotsBaromVisibWave heightAir tempDewpointWater temp
2016-Jul-26 06:00N 24°24' W 080°54'9212.4 120 / 161017.0 28.026.630.0
2016-Jul-25 22:34N 25°40' W 079°57'1111.2
2016-Jul-25 21:33N 25°46' W 080°08'2 1.9
2016-Jul-25 20:23N 25°47' W 080°10'0 0.0
2016-Jul-25 19:31N 25°47' W 080°10'0 0.0
2016-Jul-25 18:25N 25°47' W 080°10'0 0.0
2016-Jul-25 17:33N 25°47' W 080°10'0 0.0
2016-Jul-25 16:27N 25°47' W 080°10'0 0.0
2016-Jul-25 15:32N 25°47' W 080°10'0 0.0
2016-Jul-25 14:29N 25°47' W 080°10'0 0.0
2016-Jul-25 13:20N 25°47' W 080°10'0 0.0
2016-Jul-25 12:33N 25°47' W 080°10'26 4.8
2016-Jul-25 07:00N 25°54' W 079°42'   110 / 81017.0 28.025.230.0
2016-Jul-23 02:04N 26°16' W 079°08'813.0
2016-Jul-23 01:26N 26°12' W 079°16'1314.4
2016-Jul-23 00:33N 26°05' W 079°28'1514.7
2016-Jul-22 23:34N 25°59' W 079°42'1413.9
2016-Jul-22 22:33N 25°53' W 079°56'1312.8
2016-Jul-22 21:33N 25°46' W 080°09'2 1.4
2016-Jul-22 20:25N 25°47' W 080°10'0 0.0
2016-Jul-22 19:31N 25°47' W 080°10'0 0.0
2016-Jul-22 18:17N 25°47' W 080°10'0 0.0
2016-Jul-22 17:18N 25°47' W 080°10'0 0.0
2016-Jul-22 16:14N 25°47' W 080°10'0 0.0
2016-Jul-22 15:23N 25°47' W 080°10'0 0.0
2016-Jul-22 14:32N 25°47' W 080°10'0 0.0
2016-Jul-22 13:25N 25°47' W 080°10'0 0.0
2016-Jul-22 12:31N 25°47' W 080°10'0 0.4
2016-Jul-22 11:29N 25°47' W 080°10'8 9.1
2016-Jul-22 10:33N 25°48' W 080°01'1111.5
2016-Jul-22 09:33N 25°53' W 079°49'1212.2
2016-Jul-22 08:34N 26°01' W 079°39'1312.5
2016-Jul-22 07:30N 26°09' W 079°27'2516.3
2016-Jul-22 06:00N 26°12' W 079°00'126 5.3 080 / 71018.0 0.527.025.630.0
2016-Jul-21 06:00N 25°48' W 076°42'25 0.7 090 / 111019.0 27.025.630.0
2016-Jul-19 18:00N 25°36' W 077°06'81 6.8 080 / 171020.010.8 1.029.026.230.0
2016-Jul-19 06:00N 26°06' W 078°30'44 9.9 110 / 181021.010.8 1.028.023.730.0
2016-Jul-19 01:32N 26°11' W 079°19'1111.0
2016-Jul-19 00:33N 26°05' W 079°29'1111.2
2016-Jul-18 23:33N 25°59' W 079°39'1111.3
2016-Jul-18 22:33N 25°54' W 079°50'1111.0
2016-Jul-18 21:32N 25°48' W 080°01'9 0.8
2016-Jul-18 10:08N 25°47' W 080°10'2 3.5
2016-Jul-18 09:27N 25°46' W 080°08'9 9.9
2016-Jul-18 08:33N 25°49' W 079°59'9 9.2
2016-Jul-18 07:33N 25°54' W 079°50'7 6.7
2016-Jul-18 06:33N 25°57' W 079°44'7 7.4
2016-Jul-18 05:33N 26°01' W 079°37'  

Dump ship's entire track history